VOCB/CJB METAR and TAF weather

Enter ICAO airport designator
Station Type Date Time Source
VOCB METAR 2021/06/22 22:00 UTC NOAA

VOCB 222200Z 23004KT 5000 BR SCT012 BKN080 25/23 Q1010 NOSIG


Station Type Date Time Source
VOCB Decoded METAR 2021/06/22 22:00 UTC NOAA

Coimbatore / Peelamedu, India (VOCB) 11-02N 077-03E 399M
Jun 22, 2021 - 06:00 PM EDT / 2021.06.22 2200 UTC
Wind: from the SW (230 degrees) at 5 MPH (4 KT):0
Visibility: 3 mile(s):0
Sky conditions: mostly cloudy
Weather: mist
Temperature: 77 F (25 C)
Dew Point: 73 F (23 C)
Relative Humidity: 88%
Pressure (altimeter): 29.83 in. Hg (1010 hPa)
ob: VOCB 222200Z 23004KT 5000 BR SCT012 BKN080 25/23 Q1010 NOSIG
cycle: 22

Station Type Date Time Source
VOCB TAF 2021/06/22 18:00 UTC NOAA

TAF VOCB 221700Z 2218/2324 20010KT 5000 BR SCT015 SCT080
BECMG 2303/2304 6000
TEMPO 2309/2315 SCT015 FEW020TCU/CB SCT080
BECMG 2315/2316 5000 BR

Example: see airport list